Domov               UVHVVR             MKGP            O straneh              
ZDRAVSTVENO VARSTVO RASTLIN
  MREŽA AGROMET. POSTAJ
 ► PROGNOSTIČNA OBVESTILA
AGROMETEOROLOŠKI PODATKI -
ARSO
OBVLADOVANJE TVEGANJ ZARADI
NEUGODNIH VREMENSKIH RAZMER
  ► NARAVNE NESREČE
  ► SUŠA/MOČA
  ► NAMAKANJE
  ► ŽLED (gozdarstvo)
KARTOGRAFSKI PRIKAZI
SPLETNE POVEZAVE
PROJEKTI IN PUBLIKACIJE

AGROMETEOROLOŠKA MREŽA: VREMENSKE POSTAJE IN FENOLOŠKA OPAZOVANJA

Pregled podatkov za lokacijo Šlovrenc, meteorološka postaja 859088

Pregled senzorjev na lokaciji

ID Ime Zadnja
vrednost
Datum
zadnje
spremembe
Tip
senzorja
3973 Temperatura 2 m ( °C) 20,41 °C 25.6.2017 03:00 50YA
3974 Relativna vlaga 2 m (% RH) 98,26 % RH 25.6.2017 03:00 50YA
3975 Omočenost lista (U) 0 U 25.6.2017 03:00 A730WET
3976 Padavine 0.2 mm (mm) 0 mm 25.6.2017 03:00 Rain-O-Matic

Pregled podatkov zadnjih 24 ur

Zap.
št.
Datum in čas Šlovrenc
Omočenost
lista
Padavine
0.2
mm
Relativna
vlaga
2
m
Temperatura
2
m
0 25.6.2017 02:00 0 0 98,26 20,41
1 25.6.2017 01:30 0 0 97,54 20,54
2 25.6.2017 01:00 0 0 96,42 20,92
3 25.6.2017 00:30 0 0 96,91 21,3
4 25.6.2017 00:00 0 0 96,1 21,73
5 24.6.2017 23:30 0 0 95,64 22,04
6 24.6.2017 23:00 0 0 95,18 22,54
7 24.6.2017 22:30 0 0 94,91 22,66
8 24.6.2017 22:00 0 0 93,77 22,89
9 24.6.2017 21:30 0 0 92,26 23,34
10 24.6.2017 21:00 0 0 91,23 23,65
11 24.6.2017 20:30 0 0 89,03 24,19
12 24.6.2017 20:00 0 0 87,32 25,03
13 24.6.2017 19:30 0 0 84,72 25,82
14 24.6.2017 19:00 0 0 81 26,93
15 24.6.2017 18:30 0 0 77,54 27,88
16 24.6.2017 18:00 0 0 68,65 29,23
17 24.6.2017 17:30 0 0 61,27 30,7
18 24.6.2017 17:00 0 0 59,59 31,11
19 24.6.2017 16:30 0 0 60,41 31,12
20 24.6.2017 16:00 0 0 59,27 31,63
21 24.6.2017 15:30 0 0 59 32,17
22 24.6.2017 15:00 0 0 54,86 32,92
23 24.6.2017 14:30 0 0 51,94 34,3
24 24.6.2017 14:00 0 0 50,41 34,82
25 24.6.2017 13:30 0 0 51,02 34,39
26 24.6.2017 13:00 0 0 51,78 34,76
27 24.6.2017 12:30 0 0 53,36 34,77
28 24.6.2017 12:00 0 0 51,62 34,87
29 24.6.2017 11:30 0 0 51,67 34,6
30 24.6.2017 11:00 0 0 50,95 34,16
31 24.6.2017 10:30 0 0 50,99 33,6
32 24.6.2017 10:00 0 0 53,27 33,09
33 24.6.2017 09:30 0 0 54,48 32,66
34 24.6.2017 09:00 0 0 55,47 32,14
35 24.6.2017 08:30 0 0 61,72 30,61
36 24.6.2017 08:00 0 0 69,59 29,59
37 24.6.2017 07:30 0 0 81,71 26,73
38 24.6.2017 07:00 0 0 88,85 25,21
39 24.6.2017 06:30 0 0 96,39 23,71
40 24.6.2017 06:00 0 0 100 22,28
41 24.6.2017 05:30 0 0 100 21,46
42 24.6.2017 05:00 0 0 100 20,91
43 24.6.2017 04:30 0 0 100 20,46
44 24.6.2017 04:00 0 0 100 20,4
© 2011 Ministrstvo za kmetijstvo, gozdarstvo in prehrano. Vse pravice pridržane.